createdAt,value
2018-01-16T00:00:41.407Z,77.49
2018-01-16T00:01:47.123Z,77.69
2018-01-16T00:02:53.592Z,77.63
2018-01-16T00:03:59.485Z,77.81
2018-01-16T00:05:05.373Z,77.84
2018-01-16T00:06:11.894Z,78.01
2018-01-16T00:07:17.619Z,78.13
2018-01-16T00:08:23.323Z,78.08
2018-01-16T00:09:29.783Z,77.95
2018-01-16T00:10:35.494Z,78.10
2018-01-16T00:11:42.006Z,78.21
2018-01-16T00:12:47.742Z,78.19
2018-01-16T00:13:53.452Z,78.42
2018-01-16T00:14:59.196Z,78.39
2018-01-16T00:16:04.948Z,78.36
2018-01-16T00:17:10.702Z,78.37
2018-01-16T00:18:16.496Z,78.39
2018-01-16T00:19:22.212Z,78.55
2018-01-16T00:20:27.997Z,78.51
2018-01-16T00:21:34.563Z,78.52
2018-01-16T00:22:43.477Z,78.61
2018-01-16T00:23:49.995Z,78.72
2018-01-16T00:24:55.898Z,78.72
2018-01-16T00:26:01.656Z,78.78
2018-01-16T00:27:07.188Z,78.74
2018-01-16T00:28:13.696Z,78.92
2018-01-16T00:29:20.303Z,79.03
2018-01-16T00:30:26.125Z,78.94
2018-01-16T00:31:31.845Z,79.17
2018-01-16T00:32:37.564Z,79.16
2018-01-16T00:33:43.312Z,79.29
2018-01-16T00:34:49.795Z,79.04
2018-01-16T00:35:56.295Z,79.16
2018-01-16T00:37:02.011Z,79.05
2018-01-16T00:38:07.741Z,79.06
2018-01-16T00:39:14.239Z,79.02
2018-01-16T00:40:19.971Z,78.82
2018-01-16T00:41:25.683Z,78.62
2018-01-16T00:42:32.259Z,78.63
2018-01-16T00:43:37.073Z,78.49
2018-01-16T00:44:42.829Z,78.51
2018-01-16T00:45:48.563Z,78.32
2018-01-16T00:46:54.080Z,78.26
2018-01-16T00:48:00.579Z,78.12
2018-01-16T00:49:06.311Z,78.05
2018-01-16T00:50:12.084Z,78.01
2018-01-16T00:51:17.807Z,77.89
2018-01-16T00:52:23.535Z,77.80
2018-01-16T00:53:29.256Z,77.79
2018-01-16T00:54:35.039Z,77.70
2018-01-16T00:55:40.987Z,77.68
2018-01-16T00:56:46.718Z,77.67
2018-01-16T00:57:52.424Z,77.33
2018-01-16T00:58:58.167Z,77.24
2018-01-16T01:00:03.907Z,77.15
2018-01-16T01:01:09.644Z,76.94
2018-01-16T01:02:16.196Z,77.03
2018-01-16T01:03:22.092Z,77.01
2018-01-16T01:04:27.826Z,76.99
2018-01-16T01:05:33.536Z,77.00
2018-01-16T01:06:39.294Z,76.61
2018-01-16T01:07:45.008Z,76.57
2018-01-16T01:08:50.775Z,76.38
2018-01-16T01:09:57.438Z,76.32
2018-01-16T01:11:03.144Z,76.27
2018-01-16T01:12:09.650Z,76.08
2018-01-16T01:13:15.359Z,76.22
2018-01-16T01:14:21.078Z,76.21
2018-01-16T01:15:27.549Z,76.22
2018-01-16T01:16:34.019Z,76.24
2018-01-16T01:17:39.766Z,76.04
2018-01-16T01:18:45.510Z,75.95
2018-01-16T01:19:51.229Z,75.78
2018-01-16T01:20:57.721Z,75.65
2018-01-16T01:22:03.456Z,75.64
2018-01-16T01:23:09.184Z,75.58
2018-01-16T01:24:14.963Z,75.45
2018-01-16T01:25:20.676Z,75.36
2018-01-16T01:26:26.404Z,75.38
2018-01-16T01:27:32.351Z,75.31
2018-01-16T01:28:38.096Z,75.21
2018-01-16T01:29:43.804Z,75.25
2018-01-16T01:30:50.307Z,75.27
2018-01-16T01:31:56.030Z,75.12
2018-01-16T01:33:01.860Z,74.93
2018-01-16T01:34:08.379Z,74.78
2018-01-16T01:35:14.102Z,74.63
2018-01-16T01:36:19.816Z,74.64
2018-01-16T01:37:25.614Z,74.61
2018-01-16T01:38:31.344Z,74.51
2018-01-16T01:39:37.098Z,74.38
2018-01-16T01:40:43.031Z,74.22
2018-01-16T01:41:49.018Z,74.03
2018-01-16T01:42:55.552Z,74.00
2018-01-16T01:44:02.459Z,74.02
2018-01-16T01:45:08.242Z,74.10
2018-01-16T01:46:13.952Z,73.99
2018-01-16T01:47:20.063Z,73.86
2018-01-16T01:48:26.502Z,73.71
2018-01-16T01:49:32.236Z,73.61
2018-01-16T01:50:37.973Z,73.57
2018-01-16T01:51:43.446Z,73.49
2018-01-16T01:52:50.363Z,73.56
2018-01-16T01:53:56.221Z,73.45
2018-01-16T01:55:01.958Z,73.45
2018-01-16T01:56:07.761Z,73.46
2018-01-16T01:57:14.474Z,73.57
2018-01-16T01:58:20.202Z,73.55
2018-01-16T01:59:26.806Z,73.53
2018-01-16T02:00:33.481Z,73.49
2018-01-16T02:01:39.994Z,73.76
2018-01-16T02:02:45.711Z,73.97
2018-01-16T02:03:51.444Z,74.30
2018-01-16T02:04:57.174Z,74.46
2018-01-16T02:06:02.891Z,74.46
2018-01-16T02:07:09.402Z,74.58
2018-01-16T02:08:15.146Z,74.70
2018-01-16T02:09:21.021Z,74.90
2018-01-16T02:10:27.519Z,75.10
2018-01-16T02:11:33.278Z,75.26
2018-01-16T02:12:39.020Z,75.26
2018-01-16T02:13:44.749Z,75.41
2018-01-16T02:14:50.477Z,75.43
2018-01-16T02:15:56.207Z,75.45
2018-01-16T02:17:02.689Z,75.39
2018-01-16T02:18:08.437Z,75.36
2018-01-16T02:19:14.148Z,75.57
2018-01-16T02:20:20.633Z,75.58
2018-01-16T02:21:26.359Z,75.62
2018-01-16T02:22:32.088Z,75.76
2018-01-16T02:23:38.600Z,75.78
2018-01-16T02:24:44.299Z,75.78
2018-01-16T02:25:50.034Z,75.70
2018-01-16T02:26:55.772Z,75.64
2018-01-16T02:28:02.254Z,75.69
2018-01-16T02:29:08.002Z,75.70
2018-01-16T02:30:13.712Z,75.73
2018-01-16T02:31:20.189Z,75.71
2018-01-16T02:32:25.914Z,75.71
2018-01-16T02:33:31.633Z,75.66
2018-01-16T02:34:38.145Z,75.56
2018-01-16T02:35:43.855Z,75.57
2018-01-16T02:36:49.581Z,75.56
2018-01-16T02:37:56.062Z,75.70
2018-01-16T02:39:01.539Z,75.72
2018-01-16T02:40:08.037Z,75.57
2018-01-16T02:41:14.531Z,75.49
2018-01-16T02:42:20.231Z,75.54
2018-01-16T02:43:26.712Z,75.74
2018-01-16T02:44:32.236Z,75.79
2018-01-16T02:45:38.582Z,75.86
2018-01-16T02:46:44.859Z,75.85
2018-01-16T02:47:50.399Z,75.84
2018-01-16T02:48:56.128Z,75.84
2018-01-16T02:50:02.477Z,75.76
2018-01-16T02:51:08.803Z,75.72
2018-01-16T02:52:14.325Z,75.70
2018-01-16T02:53:19.948Z,75.71
2018-01-16T02:54:25.696Z,75.63
2018-01-16T02:55:31.229Z,75.50
2018-01-16T02:56:36.980Z,75.41
2018-01-16T02:57:42.516Z,75.41
2018-01-16T02:58:48.045Z,75.33
2018-01-16T02:59:53.771Z,75.24
2018-01-16T03:00:59.508Z,75.10
2018-01-16T03:02:05.266Z,75.05
2018-01-16T03:03:10.976Z,75.06
2018-01-16T03:04:16.705Z,74.92
2018-01-16T03:05:23.184Z,74.78
2018-01-16T03:06:28.908Z,74.73
2018-01-16T03:07:35.407Z,74.71
2018-01-16T03:08:41.141Z,74.65
2018-01-16T03:09:46.868Z,74.59
2018-01-16T03:10:52.599Z,74.47
2018-01-16T03:11:58.311Z,74.37
2018-01-16T03:13:04.841Z,74.27
2018-01-16T03:14:10.557Z,74.18
2018-01-16T03:15:16.286Z,74.15
2018-01-16T03:16:22.007Z,74.13
2018-01-16T03:17:27.753Z,74.08
2018-01-16T03:18:33.498Z,74.07
2018-01-16T03:19:39.197Z,73.96
2018-01-16T03:20:44.908Z,73.89
2018-01-16T03:21:50.646Z,73.89
2018-01-16T03:22:56.356Z,73.90
2018-01-16T03:24:02.418Z,73.83
2018-01-16T03:25:08.120Z,73.85
2018-01-16T03:26:13.856Z,73.69
2018-01-16T03:27:20.266Z,73.71
2018-01-16T03:28:25.970Z,73.73
2018-01-16T03:29:32.468Z,73.65
2018-01-16T03:30:38.184Z,73.52
2018-01-16T03:31:43.581Z,73.47
2018-01-16T03:32:49.288Z,73.48
2018-01-16T03:33:54.996Z,73.47
2018-01-16T03:35:00.745Z,73.41
2018-01-16T03:36:06.442Z,73.36
2018-01-16T03:37:13.240Z,73.35
2018-01-16T03:38:19.715Z,73.33
2018-01-16T03:39:25.432Z,73.26
2018-01-16T03:40:31.950Z,73.20
2018-01-16T03:41:38.440Z,73.19
2018-01-16T03:42:44.910Z,73.09
2018-01-16T03:43:50.682Z,73.03
2018-01-16T03:44:56.603Z,72.90
2018-01-16T03:46:03.138Z,72.83
2018-01-16T03:47:08.850Z,72.74
2018-01-16T03:48:14.573Z,72.57
2018-01-16T03:49:20.294Z,72.60
2018-01-16T03:50:25.994Z,72.59
2018-01-16T03:51:31.745Z,72.69
2018-01-16T03:52:37.451Z,72.73
2018-01-16T03:53:43.163Z,72.69
2018-01-16T03:54:48.894Z,72.83
2018-01-16T03:55:55.367Z,72.86
2018-01-16T03:57:01.112Z,73.02
2018-01-16T03:58:06.822Z,73.30
2018-01-16T03:59:13.291Z,73.43
2018-01-16T04:00:18.999Z,73.40
2018-01-16T04:01:24.773Z,73.63
2018-01-16T04:02:31.470Z,73.93
2018-01-16T04:03:37.595Z,73.99
2018-01-16T04:04:43.360Z,74.12
2018-01-16T04:05:49.165Z,74.35
2018-01-16T04:06:55.672Z,74.63
2018-01-16T04:08:02.199Z,75.01
2018-01-16T04:09:07.926Z,75.14
2018-01-16T04:10:14.432Z,75.50
2018-01-16T04:11:20.152Z,75.58
2018-01-16T04:12:25.863Z,75.72
2018-01-16T04:13:31.624Z,75.94
2018-01-16T04:14:37.327Z,75.91
2018-01-16T04:15:43.813Z,76.17
2018-01-16T04:16:49.306Z,76.31
2018-01-16T04:17:56.021Z,76.34
2018-01-16T04:19:01.775Z,76.24
2018-01-16T04:20:07.497Z,76.26
2018-01-16T04:21:13.227Z,76.46
2018-01-16T04:22:19.726Z,76.47
2018-01-16T04:23:25.458Z,76.65
2018-01-16T04:24:31.212Z,76.77
2018-01-16T04:25:36.949Z,76.76
2018-01-16T04:26:43.446Z,76.82
2018-01-16T04:27:49.184Z,76.76
2018-01-16T04:28:54.946Z,76.84
2018-01-16T04:30:01.440Z,76.89
2018-01-16T04:31:07.155Z,76.89
2018-01-16T04:32:12.899Z,76.75
2018-01-16T04:33:18.608Z,76.76
2018-01-16T04:34:25.122Z,76.69
2018-01-16T04:35:30.879Z,76.82
2018-01-16T04:36:36.665Z,77.04
2018-01-16T04:37:43.159Z,77.00
2018-01-16T04:38:48.860Z,77.01
2018-01-16T04:39:55.332Z,76.80
2018-01-16T04:41:01.097Z,76.83
2018-01-16T04:42:07.600Z,76.93
2018-01-16T04:43:13.312Z,76.78
2018-01-16T04:44:19.036Z,77.01
2018-01-16T04:45:24.764Z,76.96
2018-01-16T04:46:30.521Z,76.95
2018-01-16T04:47:36.246Z,76.91
2018-01-16T04:48:42.031Z,76.95
2018-01-16T04:49:47.802Z,77.03
2018-01-16T04:50:53.972Z,76.91
2018-01-16T04:51:59.748Z,76.98
2018-01-16T04:53:05.500Z,76.89
2018-01-16T04:54:11.230Z,76.82
2018-01-16T04:55:16.974Z,76.96
2018-01-16T04:56:22.730Z,76.82
2018-01-16T04:57:28.471Z,76.81
2018-01-16T04:58:34.217Z,76.65
2018-01-16T04:59:39.953Z,76.87
2018-01-16T05:00:45.782Z,76.86
2018-01-16T05:01:51.511Z,76.84
2018-01-16T05:02:57.282Z,76.83
2018-01-16T05:04:02.993Z,76.82
2018-01-16T05:05:08.723Z,76.77
2018-01-16T05:06:14.439Z,76.79
2018-01-16T05:07:20.930Z,76.80
2018-01-16T05:08:26.699Z,76.78
2018-01-16T05:09:32.434Z,76.72
2018-01-16T05:10:38.162Z,76.91
2018-01-16T05:11:43.887Z,77.01
2018-01-16T05:12:49.624Z,77.11
2018-01-16T05:13:55.347Z,77.29
2018-01-16T05:15:01.085Z,77.51
2018-01-16T05:16:07.572Z,77.80
2018-01-16T05:17:13.275Z,78.00
2018-01-16T05:18:19.539Z,78.11
2018-01-16T05:19:26.070Z,78.00
2018-01-16T05:20:33.291Z,78.06
2018-01-16T05:21:39.766Z,78.23
2018-01-16T05:22:45.496Z,78.52
2018-01-16T05:23:52.223Z,78.52
2018-01-16T05:24:57.773Z,78.44
2018-01-16T05:26:03.491Z,78.24
2018-01-16T05:27:09.224Z,78.30
2018-01-16T05:28:14.933Z,78.28
2018-01-16T05:29:20.636Z,78.33
2018-01-16T05:30:27.220Z,78.29
2018-01-16T05:31:33.704Z,78.23
2018-01-16T05:32:39.408Z,78.20
2018-01-16T05:33:45.905Z,78.23
2018-01-16T05:34:51.627Z,78.10
2018-01-16T05:35:58.155Z,78.02
2018-01-16T05:37:03.866Z,78.11
2018-01-16T05:38:09.568Z,78.10
2018-01-16T05:39:15.277Z,78.15
2018-01-16T05:40:21.023Z,78.24
2018-01-16T05:41:27.550Z,78.34
2018-01-16T05:42:33.086Z,78.32
2018-01-16T05:43:38.818Z,78.31
2018-01-16T05:44:44.560Z,78.35
2018-01-16T05:45:50.134Z,78.34
2018-01-16T05:46:56.660Z,78.41
2018-01-16T05:48:02.454Z,78.32
2018-01-16T05:49:09.017Z,78.28
2018-01-16T05:50:15.518Z,78.38
2018-01-16T05:51:21.492Z,78.28
2018-01-16T05:52:27.981Z,78.28
2018-01-16T05:53:34.150Z,78.13
2018-01-16T05:54:40.223Z,78.18
2018-01-16T05:55:47.139Z,78.50
2018-01-16T05:56:54.659Z,78.61
2018-01-16T05:58:02.316Z,78.59
2018-01-16T05:59:08.441Z,78.66
2018-01-16T06:00:14.182Z,78.87
2018-01-16T06:01:19.912Z,79.02
2018-01-16T06:02:25.660Z,79.04
2018-01-16T06:03:31.454Z,79.03
2018-01-16T06:04:37.543Z,79.14
2018-01-16T06:05:43.271Z,79.21
2018-01-16T06:06:48.992Z,79.34
2018-01-16T06:07:54.771Z,79.45
2018-01-16T06:09:00.514Z,79.61
2018-01-16T06:10:05.943Z,79.70
2018-01-16T06:11:12.538Z,80.00
2018-01-16T06:12:19.043Z,80.19
2018-01-16T06:13:24.813Z,80.42
2018-01-16T06:14:30.547Z,80.54
2018-01-16T06:15:36.267Z,80.72
2018-01-16T06:16:41.991Z,80.78
2018-01-16T06:17:47.704Z,80.84
2018-01-16T06:18:54.208Z,80.82
2018-01-16T06:19:59.963Z,80.80
2018-01-16T06:21:05.699Z,81.03
2018-01-16T06:22:11.404Z,81.06
2018-01-16T06:23:17.127Z,81.11
2018-01-16T06:24:23.607Z,81.18
2018-01-16T06:25:29.363Z,81.23
2018-01-16T06:26:34.934Z,81.25
2018-01-16T06:27:40.715Z,81.36
2018-01-16T06:28:46.479Z,81.45
2018-01-16T06:29:52.231Z,81.84
2018-01-16T06:30:57.970Z,81.86
2018-01-16T06:32:03.688Z,81.98
2018-01-16T06:33:09.540Z,81.99
2018-01-16T06:34:15.240Z,81.87
2018-01-16T06:35:21.754Z,81.84
2018-01-16T06:36:27.497Z,81.87
2018-01-16T06:37:33.301Z,81.71
2018-01-16T06:38:39.783Z,81.87
2018-01-16T06:39:45.493Z,81.95
2018-01-16T06:40:51.985Z,81.99
2018-01-16T06:41:57.740Z,82.06
2018-01-16T06:43:03.451Z,82.03
2018-01-16T06:44:09.179Z,82.02
2018-01-16T06:45:15.661Z,82.00
2018-01-16T06:46:21.393Z,82.05
2018-01-16T06:47:27.160Z,81.99
2018-01-16T06:48:32.907Z,81.96
2018-01-16T06:49:38.644Z,82.01
2018-01-16T06:50:44.384Z,82.08
2018-01-16T06:51:50.114Z,82.17
2018-01-16T06:52:55.839Z,82.32
2018-01-16T06:54:02.326Z,82.31
2018-01-16T06:55:08.027Z,82.40
2018-01-16T06:56:13.758Z,82.41
2018-01-16T06:57:19.726Z,82.32
2018-01-16T06:58:25.467Z,82.18
2018-01-16T06:59:31.187Z,82.05
2018-01-16T07:00:36.908Z,81.89
2018-01-16T07:01:42.624Z,81.74
2018-01-16T07:02:48.417Z,81.52
2018-01-16T07:03:54.924Z,81.34
2018-01-16T07:05:00.628Z,81.26
2018-01-16T07:06:06.340Z,81.12
2018-01-16T07:07:12.044Z,81.04
2018-01-16T07:08:17.784Z,80.87
2018-01-16T07:09:23.537Z,80.74
2018-01-16T07:10:29.267Z,80.68
2018-01-16T07:11:34.988Z,80.55
2018-01-16T07:12:40.924Z,80.42
2018-01-16T07:13:46.654Z,80.32
2018-01-16T07:14:52.391Z,80.29
2018-01-16T07:15:58.178Z,80.24
2018-01-16T07:17:03.887Z,80.21
2018-01-16T07:18:09.623Z,80.17
2018-01-16T07:19:15.159Z,80.30
2018-01-16T07:20:20.894Z,80.26
2018-01-16T07:21:26.632Z,80.30
2018-01-16T07:22:33.136Z,80.28
2018-01-16T07:23:38.892Z,80.29
2018-01-16T07:24:44.434Z,80.28
2018-01-16T07:25:50.168Z,80.27
2018-01-16T07:26:55.891Z,80.20
2018-01-16T07:28:01.611Z,80.04
2018-01-16T07:29:07.135Z,79.86
2018-01-16T07:30:13.623Z,79.64
2018-01-16T07:31:19.395Z,79.43
2018-01-16T07:32:25.113Z,79.27
2018-01-16T07:33:30.815Z,79.05
2018-01-16T07:34:36.543Z,78.92
2018-01-16T07:35:43.015Z,78.68
2018-01-16T07:36:48.781Z,78.59
2018-01-16T07:37:54.488Z,78.45
2018-01-16T07:39:01.054Z,78.33
2018-01-16T07:40:06.766Z,78.17
2018-01-16T07:41:12.472Z,78.01
2018-01-16T07:42:18.230Z,77.86
2018-01-16T07:43:23.997Z,77.76
2018-01-16T07:44:30.472Z,77.68
2018-01-16T07:45:36.197Z,77.48
2018-01-16T07:46:42.714Z,77.38
2018-01-16T07:47:48.451Z,77.33
2018-01-16T07:48:54.161Z,77.25
2018-01-16T07:49:59.873Z,77.06
2018-01-16T07:51:06.353Z,76.95
2018-01-16T07:52:12.101Z,76.67
2018-01-16T07:53:17.874Z,76.48
2018-01-16T07:54:23.800Z,76.34
2018-01-16T07:55:29.533Z,76.21
2018-01-16T07:56:35.262Z,76.03
2018-01-16T07:57:40.965Z,75.93
2018-01-16T07:58:46.747Z,75.87
2018-01-16T07:59:52.474Z,75.69
2018-01-16T08:00:59.004Z,75.59
2018-01-16T08:02:04.929Z,75.42
2018-01-16T08:03:10.665Z,75.27
2018-01-16T08:04:16.419Z,75.18
2018-01-16T08:05:22.132Z,75.06
2018-01-16T08:06:27.874Z,74.92
2018-01-16T08:07:33.612Z,74.70
2018-01-16T08:08:39.393Z,74.59
2018-01-16T08:09:45.140Z,74.45
2018-01-16T08:10:51.637Z,74.36
2018-01-16T08:11:58.108Z,74.30
2018-01-16T08:13:03.863Z,74.32
2018-01-16T08:14:09.803Z,74.26
2018-01-16T08:15:15.532Z,74.21
2018-01-16T08:16:21.240Z,74.20
2018-01-16T08:17:26.971Z,74.18
2018-01-16T08:18:32.560Z,74.11
2018-01-16T08:19:38.274Z,74.08
2018-01-16T08:20:44.800Z,74.02
2018-01-16T08:21:50.499Z,73.95
2018-01-16T08:22:56.209Z,74.01
2018-01-16T08:24:02.689Z,74.12
2018-01-16T08:25:08.397Z,74.05
2018-01-16T08:26:14.486Z,74.09
2018-01-16T08:27:20.200Z,74.19
2018-01-16T08:28:26.677Z,74.20
2018-01-16T08:29:32.439Z,74.22
2018-01-16T08:30:38.170Z,74.22
2018-01-16T08:31:43.918Z,74.18
2018-01-16T08:32:49.459Z,74.21
2018-01-16T08:33:55.195Z,74.22
2018-01-16T08:35:00.909Z,74.32
2018-01-16T08:36:06.421Z,74.41
2018-01-16T08:37:12.951Z,74.43
2018-01-16T08:38:18.689Z,74.39
2018-01-16T08:39:24.594Z,74.41
2018-01-16T08:40:30.430Z,74.51
2018-01-16T08:41:36.947Z,74.71
2018-01-16T08:42:42.709Z,74.72
2018-01-16T08:43:49.924Z,74.72
2018-01-16T08:44:55.439Z,74.69
2018-01-16T08:46:01.934Z,74.99
2018-01-16T08:47:07.679Z,75.09
2018-01-16T08:48:13.415Z,75.18
2018-01-16T08:49:19.142Z,75.11
2018-01-16T08:50:24.915Z,75.07
2018-01-16T08:51:30.620Z,75.09
2018-01-16T08:52:36.958Z,75.11
2018-01-16T08:53:43.469Z,75.03
2018-01-16T08:54:49.203Z,74.82
2018-01-16T08:55:54.945Z,74.26
2018-01-16T08:57:00.647Z,74.07
2018-01-16T08:58:06.382Z,74.04
2018-01-16T08:59:12.893Z,73.28
2018-01-16T09:00:18.622Z,73.00
2018-01-16T09:01:24.328Z,73.04
2018-01-16T09:02:30.062Z,72.20
2018-01-16T09:03:36.009Z,71.89
2018-01-16T09:04:42.558Z,71.26
2018-01-16T09:05:49.031Z,70.81
2018-01-16T09:06:54.747Z,70.67
2018-01-16T09:08:01.958Z,70.86
2018-01-16T09:09:07.664Z,70.87
2018-01-16T09:10:13.438Z,71.02
2018-01-16T09:11:18.981Z,70.96
2018-01-16T09:12:24.687Z,70.98
2018-01-16T09:13:30.396Z,71.01
2018-01-16T09:14:36.108Z,70.96
2018-01-16T09:15:42.129Z,70.91
2018-01-16T09:16:48.612Z,70.84
2018-01-16T09:17:54.345Z,70.75
2018-01-16T09:19:00.050Z,70.51
2018-01-16T09:20:05.765Z,70.16
2018-01-16T09:21:11.518Z,69.65
2018-01-16T09:22:17.248Z,69.17
2018-01-16T09:23:23.032Z,68.11
2018-01-16T09:24:29.531Z,67.71
2018-01-16T09:25:35.319Z,67.16
2018-01-16T09:26:41.866Z,66.24
2018-01-16T09:27:47.651Z,65.76
2018-01-16T09:28:54.196Z,65.43
2018-01-16T09:30:00.668Z,65.00
2018-01-16T09:31:06.497Z,64.44
2018-01-16T09:32:13.025Z,63.06
2018-01-16T09:33:18.743Z,62.59
2018-01-16T09:34:24.487Z,62.23
2018-01-16T09:35:30.232Z,61.67
2018-01-16T09:36:35.967Z,60.60
2018-01-16T09:37:41.701Z,60.31
2018-01-16T09:38:47.431Z,59.78
2018-01-16T09:39:53.395Z,59.00
2018-01-16T09:40:59.133Z,58.38
2018-01-16T09:42:04.908Z,58.24
2018-01-16T09:43:10.689Z,57.97
2018-01-16T09:44:16.440Z,57.75
2018-01-16T09:45:22.181Z,57.65
2018-01-16T09:46:27.923Z,57.59
2018-01-16T09:47:33.667Z,57.18
2018-01-16T09:48:39.426Z,56.63
2018-01-16T09:49:45.207Z,56.52
2018-01-16T09:50:51.701Z,56.62
2018-01-16T09:51:57.525Z,56.62
2018-01-16T09:53:04.043Z,56.31
2018-01-16T09:54:09.810Z,56.08
2018-01-16T09:55:16.385Z,55.92
2018-01-16T09:56:22.127Z,55.95
2018-01-16T09:57:28.733Z,55.79
2018-01-16T09:58:34.464Z,55.86
2018-01-16T09:59:40.227Z,55.82
2018-01-16T10:00:45.974Z,55.98
2018-01-16T10:01:51.718Z,55.96
2018-01-16T10:02:57.460Z,56.09
2018-01-16T10:04:03.217Z,56.01
2018-01-16T10:05:08.964Z,56.02
2018-01-16T10:06:15.473Z,56.04
2018-01-16T10:07:21.216Z,55.96
2018-01-16T10:08:26.929Z,55.77
2018-01-16T10:09:32.657Z,55.88
2018-01-16T10:10:39.206Z,55.72
2018-01-16T10:11:44.935Z,55.69
2018-01-16T10:12:50.682Z,55.70
2018-01-16T10:13:56.442Z,56.00
2018-01-16T10:15:02.943Z,55.86
2018-01-16T10:16:08.694Z,56.01
2018-01-16T10:17:15.185Z,56.04
2018-01-16T10:18:21.684Z,56.22
2018-01-16T10:19:27.507Z,56.17
2018-01-16T10:20:33.244Z,56.32
2018-01-16T10:21:39.778Z,56.31
2018-01-16T10:22:45.540Z,56.46
2018-01-16T10:23:52.048Z,56.51
2018-01-16T10:24:57.778Z,56.61
2018-01-16T10:26:03.519Z,56.62
2018-01-16T10:27:09.299Z,56.59
2018-01-16T10:28:15.795Z,56.80
2018-01-16T10:29:21.566Z,57.10
2018-01-16T10:30:27.335Z,57.21
2018-01-16T10:31:33.821Z,57.62
2018-01-16T10:32:40.362Z,57.85
2018-01-16T10:33:47.075Z,57.77
2018-01-16T10:34:52.800Z,58.01
2018-01-16T10:35:58.547Z,58.14
2018-01-16T10:37:04.283Z,58.28
2018-01-16T10:38:10.032Z,58.61
2018-01-16T10:39:15.790Z,58.84
2018-01-16T10:40:21.523Z,59.08
2018-01-16T10:41:27.262Z,59.37
2018-01-16T10:42:32.971Z,59.76
2018-01-16T10:43:38.535Z,59.90
2018-01-16T10:44:44.275Z,60.09
2018-01-16T10:45:49.993Z,60.25
2018-01-16T10:46:55.955Z,60.37
2018-01-16T10:48:01.666Z,60.48
2018-01-16T10:49:07.512Z,60.34
2018-01-16T10:50:13.066Z,60.37
2018-01-16T10:51:19.576Z,60.34
2018-01-16T10:52:26.059Z,59.99
2018-01-16T10:53:31.790Z,59.85
2018-01-16T10:54:39.043Z,59.75
2018-01-16T10:55:44.824Z,59.57
2018-01-16T10:56:50.774Z,59.61
2018-01-16T10:57:57.601Z,59.59
2018-01-16T10:59:03.340Z,59.40
2018-01-16T11:00:09.108Z,59.44
2018-01-16T11:01:14.859Z,59.63
2018-01-16T11:02:21.162Z,59.55
2018-01-16T11:03:26.884Z,59.44
2018-01-16T11:04:32.922Z,59.16
2018-01-16T11:05:39.450Z,59.19
2018-01-16T11:06:45.194Z,58.98
2018-01-16T11:07:50.931Z,59.01
2018-01-16T11:08:58.202Z,58.90
2018-01-16T11:10:04.018Z,58.86
2018-01-16T11:11:10.116Z,59.01
2018-01-16T11:12:15.855Z,59.03
2018-01-16T11:13:22.378Z,59.03
2018-01-16T11:14:28.636Z,59.04
2018-01-16T11:15:34.418Z,59.04
2018-01-16T11:16:41.348Z,58.97
2018-01-16T11:17:47.087Z,59.07
2018-01-16T11:18:52.836Z,59.10
2018-01-16T11:19:58.560Z,59.16
2018-01-16T11:21:04.307Z,59.29
2018-01-16T11:22:10.096Z,59.33
2018-01-16T11:23:16.596Z,59.53
2018-01-16T11:24:22.336Z,59.51
2018-01-16T11:25:28.069Z,59.61
2018-01-16T11:26:33.806Z,60.00
2018-01-16T11:27:39.617Z,60.56
2018-01-16T11:28:46.119Z,60.87
2018-01-16T11:29:51.682Z,61.29
2018-01-16T11:30:57.418Z,61.63
2018-01-16T11:32:03.173Z,61.86
2018-01-16T11:33:08.929Z,61.99
2018-01-16T11:34:14.681Z,62.21
2018-01-16T11:35:21.204Z,62.13
2018-01-16T11:36:26.953Z,62.13
2018-01-16T11:37:32.714Z,62.51
2018-01-16T11:38:38.467Z,62.67
2018-01-16T11:39:44.243Z,62.81
2018-01-16T11:40:49.987Z,62.84
2018-01-16T11:41:56.526Z,62.96
2018-01-16T11:43:02.243Z,63.16
2018-01-16T11:44:08.796Z,63.15
2018-01-16T11:45:16.210Z,63.27
2018-01-16T11:46:22.037Z,63.33
2018-01-16T11:47:28.536Z,63.26
2018-01-16T11:48:34.271Z,63.37
2018-01-16T11:49:40.084Z,63.43
2018-01-16T11:50:45.831Z,63.53
2018-01-16T11:51:51.567Z,63.59
2018-01-16T11:52:58.047Z,63.88
2018-01-16T11:54:04.509Z,63.80
2018-01-16T11:55:10.354Z,64.00
2018-01-16T11:56:15.937Z,63.97
2018-01-16T11:57:22.445Z,64.05
2018-01-16T11:58:28.192Z,64.07
2018-01-16T11:59:33.916Z,64.11
2018-01-16T12:00:39.676Z,64.10
2018-01-16T12:01:46.194Z,64.20
2018-01-16T12:02:52.727Z,64.17
2018-01-16T12:03:59.324Z,64.05
2018-01-16T12:05:04.862Z,64.18
2018-01-16T12:06:11.195Z,64.18
2018-01-16T12:07:16.786Z,63.97
2018-01-16T12:08:22.371Z,63.91
2018-01-16T12:09:29.054Z,64.22
2018-01-16T12:10:34.830Z,64.36
2018-01-16T12:11:41.438Z,64.44
2018-01-16T12:12:47.160Z,64.68
2018-01-16T12:13:52.875Z,64.75
2018-01-16T12:14:58.612Z,65.08
2018-01-16T12:16:04.406Z,65.55
2018-01-16T12:17:10.930Z,65.78
2018-01-16T12:18:16.679Z,66.08
2018-01-16T12:19:22.396Z,66.12
2018-01-16T12:20:28.113Z,66.31
2018-01-16T12:21:33.826Z,66.53
2018-01-16T12:22:39.582Z,66.55
2018-01-16T12:23:46.054Z,66.55
2018-01-16T12:24:51.798Z,66.70
2018-01-16T12:25:58.214Z,66.30
2018-01-16T12:27:04.882Z,66.28
2018-01-16T12:28:11.431Z,66.27
2018-01-16T12:29:17.151Z,66.18
2018-01-16T12:30:22.866Z,65.85
2018-01-16T12:31:28.616Z,65.96
2018-01-16T12:32:34.374Z,66.12
2018-01-16T12:33:40.114Z,66.00
2018-01-16T12:34:45.841Z,65.83
2018-01-16T12:35:51.601Z,65.75
2018-01-16T12:36:57.077Z,65.86
2018-01-16T12:38:03.634Z,65.88
2018-01-16T12:39:11.301Z,65.97
2018-01-16T12:40:17.020Z,66.02
2018-01-16T12:41:23.329Z,65.95
2018-01-16T12:42:29.074Z,66.00
2018-01-16T12:43:37.557Z,66.09
2018-01-16T12:44:44.134Z,66.24
2018-01-16T12:45:50.603Z,66.38
2018-01-16T12:46:57.220Z,66.19
2018-01-16T12:48:03.109Z,66.66
2018-01-16T12:49:08.820Z,67.07
2018-01-16T12:50:14.631Z,67.38
2018-01-16T12:51:20.439Z,67.70
2018-01-16T12:52:26.272Z,67.85
2018-01-16T12:53:32.768Z,68.11
2018-01-16T12:54:38.779Z,68.28
2018-01-16T12:55:45.296Z,68.66
2018-01-16T12:56:51.035Z,68.99
2018-01-16T12:57:56.770Z,69.09
2018-01-16T12:59:02.511Z,69.09
2018-01-16T13:00:08.299Z,69.20
2018-01-16T13:01:14.823Z,69.35
2018-01-16T13:02:20.532Z,69.74
2018-01-16T13:03:26.258Z,70.14
2018-01-16T13:04:31.972Z,70.11
2018-01-16T13:05:38.463Z,70.00
2018-01-16T13:06:44.213Z,70.20
2018-01-16T13:07:49.925Z,70.19
2018-01-16T13:08:56.405Z,70.54
2018-01-16T13:10:02.118Z,70.69
2018-01-16T13:11:08.624Z,70.83
2018-01-16T13:12:14.374Z,70.83
2018-01-16T13:13:20.098Z,70.49
2018-01-16T13:14:25.921Z,70.35
2018-01-16T13:15:31.637Z,70.56
2018-01-16T13:16:38.134Z,70.78
2018-01-16T13:17:43.945Z,70.89
2018-01-16T13:18:50.445Z,71.13
2018-01-16T13:19:56.247Z,71.26
2018-01-16T13:21:03.945Z,71.33
2018-01-16T13:22:09.675Z,71.39
2018-01-16T13:23:16.342Z,71.49
2018-01-16T13:24:22.071Z,71.45
2018-01-16T13:25:28.582Z,71.54
2018-01-16T13:26:34.292Z,71.48
2018-01-16T13:27:40.074Z,71.56
2018-01-16T13:28:45.834Z,71.73
2018-01-16T13:29:51.550Z,71.73
2018-01-16T13:30:57.852Z,71.66
2018-01-16T13:32:03.660Z,71.62
2018-01-16T13:33:09.393Z,71.64
2018-01-16T13:34:15.142Z,71.41
2018-01-16T13:35:20.866Z,71.15
2018-01-16T13:36:26.246Z,71.02
2018-01-16T13:37:32.773Z,70.87
2018-01-16T13:38:38.559Z,70.61
2018-01-16T13:39:45.086Z,70.58
2018-01-16T13:40:50.788Z,70.53
2018-01-16T13:41:56.516Z,70.48
2018-01-16T13:43:02.236Z,70.42
2018-01-16T13:44:08.718Z,70.34
2018-01-16T13:45:14.541Z,70.50
2018-01-16T13:46:21.024Z,70.73
2018-01-16T13:47:26.751Z,70.79
2018-01-16T13:48:32.477Z,70.98
2018-01-16T13:49:38.976Z,71.01
2018-01-16T13:50:44.766Z,70.88
2018-01-16T13:51:51.245Z,71.18
2018-01-16T13:52:56.953Z,71.30
2018-01-16T13:54:02.730Z,71.22
2018-01-16T13:55:08.445Z,71.17
2018-01-16T13:56:15.024Z,71.26
2018-01-16T13:57:21.504Z,71.27
2018-01-16T13:58:27.261Z,71.37
2018-01-16T13:59:32.976Z,71.60
2018-01-16T14:00:38.733Z,71.69
2018-01-16T14:01:44.496Z,71.72
2018-01-16T14:02:50.229Z,71.83
2018-01-16T14:03:55.944Z,71.69
2018-01-16T14:05:01.687Z,71.71
2018-01-16T14:06:07.409Z,71.73
2018-01-16T14:07:13.972Z,71.56
2018-01-16T14:08:20.450Z,71.50
2018-01-16T14:09:26.183Z,71.50